sensor_id;sensor_type;location;lat;lon;timestamp;temperature;humidity
47757;SHT35;22147;52.388;13.390;2022-12-05T00:00:08;2.90;96.41
47757;SHT35;22147;52.388;13.390;2022-12-05T00:02:38;2.91;96.46
47757;SHT35;22147;52.388;13.390;2022-12-05T00:05:11;2.95;96.53
47757;SHT35;22147;52.388;13.390;2022-12-05T00:07:41;2.90;96.52
47757;SHT35;22147;52.388;13.390;2022-12-05T00:10:11;2.94;96.52
47757;SHT35;22147;52.388;13.390;2022-12-05T00:12:41;2.91;96.49
47757;SHT35;22147;52.388;13.390;2022-12-05T00:15:10;2.97;96.54
47757;SHT35;22147;52.388;13.390;2022-12-05T00:17:41;2.94;96.56
47757;SHT35;22147;52.388;13.390;2022-12-05T00:20:11;2.99;96.54
47757;SHT35;22147;52.388;13.390;2022-12-05T00:22:41;2.90;96.49
47757;SHT35;22147;52.388;13.390;2022-12-05T00:25:12;3.05;96.55
47757;SHT35;22147;52.388;13.390;2022-12-05T00:27:42;3.01;96.47
47757;SHT35;22147;52.388;13.390;2022-12-05T00:30:12;3.02;96.42
47757;SHT35;22147;52.388;13.390;2022-12-05T00:32:42;2.91;96.38
47757;SHT35;22147;52.388;13.390;2022-12-05T00:35:12;2.94;96.44
47757;SHT35;22147;52.388;13.390;2022-12-05T00:37:41;2.90;96.45
47757;SHT35;22147;52.388;13.390;2022-12-05T00:40:12;2.92;96.54
47757;SHT35;22147;52.388;13.390;2022-12-05T00:42:42;2.91;96.58
47757;SHT35;22147;52.388;13.390;2022-12-05T00:45:18;2.91;96.58
47757;SHT35;22147;52.388;13.390;2022-12-05T00:47:48;2.91;96.60
47757;SHT35;22147;52.388;13.390;2022-12-05T00:50:18;2.90;96.69
47757;SHT35;22147;52.388;13.390;2022-12-05T00:52:48;3.01;96.76
47757;SHT35;22147;52.388;13.390;2022-12-05T00:55:17;2.95;96.65
47757;SHT35;22147;52.388;13.390;2022-12-05T00:57:47;2.95;96.64
47757;SHT35;22147;52.388;13.390;2022-12-05T01:00:18;2.99;96.68
47757;SHT35;22147;52.388;13.390;2022-12-05T01:02:48;2.97;96.68
47757;SHT35;22147;52.388;13.390;2022-12-05T01:05:18;3.18;96.76
47757;SHT35;22147;52.388;13.390;2022-12-05T01:07:48;3.16;96.71
47757;SHT35;22147;52.388;13.390;2022-12-05T01:10:18;3.07;96.51
47757;SHT35;22147;52.388;13.390;2022-12-05T01:12:47;3.08;96.54
47757;SHT35;22147;52.388;13.390;2022-12-05T01:15:17;2.99;96.53
47757;SHT35;22147;52.388;13.390;2022-12-05T01:17:47;2.97;96.50
47757;SHT35;22147;52.388;13.390;2022-12-05T01:20:17;2.97;96.56
47757;SHT35;22147;52.388;13.390;2022-12-05T01:22:47;3.18;96.77
47757;SHT35;22147;52.388;13.390;2022-12-05T01:25:17;3.12;96.57
47757;SHT35;22147;52.388;13.390;2022-12-05T01:27:45;3.20;96.55
47757;SHT35;22147;52.388;13.390;2022-12-05T01:30:14;3.33;96.41
47757;SHT35;22147;52.388;13.390;2022-12-05T01:32:42;3.38;96.11
47757;SHT35;22147;52.388;13.390;2022-12-05T01:35:11;3.26;95.79
47757;SHT35;22147;52.388;13.390;2022-12-05T01:37:39;3.28;95.77
47757;SHT35;22147;52.388;13.390;2022-12-05T01:40:08;3.15;95.70
47757;SHT35;22147;52.388;13.390;2022-12-05T01:42:38;3.09;95.72
47757;SHT35;22147;52.388;13.390;2022-12-05T01:45:31;3.08;95.88
47757;SHT35;22147;52.388;13.390;2022-12-05T01:48:15;3.20;96.07
47757;SHT35;22147;52.388;13.390;2022-12-05T01:50:49;3.22;95.91
47757;SHT35;22147;52.388;13.390;2022-12-05T01:53:21;3.36;95.91
47757;SHT35;22147;52.388;13.390;2022-12-05T01:55:55;3.22;95.43
47757;SHT35;22147;52.388;13.390;2022-12-05T01:58:38;3.13;95.51
47757;SHT35;22147;52.388;13.390;2022-12-05T02:01:10;3.19;95.71
47757;SHT35;22147;52.388;13.390;2022-12-05T02:03:45;3.13;95.72
47757;SHT35;22147;52.388;13.390;2022-12-05T02:06:17;3.15;95.82
47757;SHT35;22147;52.388;13.390;2022-12-05T02:08:48;3.30;96.02
47757;SHT35;22147;52.388;13.390;2022-12-05T02:11:24;3.25;95.69
47757;SHT35;22147;52.388;13.390;2022-12-05T02:14:42;3.25;95.75
47757;SHT35;22147;52.388;13.390;2022-12-05T02:18:03;3.20;95.64
47757;SHT35;22147;52.388;13.390;2022-12-05T02:24:49;3.30;95.71
47757;SHT35;22147;52.388;13.390;2022-12-05T02:28:16;3.32;95.56
47757;SHT35;22147;52.388;13.390;2022-12-05T02:31:12;3.30;95.54
47757;SHT35;22147;52.388;13.390;2022-12-05T02:34:04;3.40;95.65
47757;SHT35;22147;52.388;13.390;2022-12-05T02:37:27;3.30;95.47
47757;SHT35;22147;52.388;13.390;2022-12-05T02:40:30;3.47;95.51
47757;SHT35;22147;52.388;13.390;2022-12-05T02:43:21;3.40;95.40
47757;SHT35;22147;52.388;13.390;2022-12-05T02:46:00;3.26;95.27
47757;SHT35;22147;52.388;13.390;2022-12-05T02:48:36;3.38;95.43
47757;SHT35;22147;52.388;13.390;2022-12-05T02:51:18;3.29;95.29
47757;SHT35;22147;52.388;13.390;2022-12-05T02:53:53;3.20;95.38
47757;SHT35;22147;52.388;13.390;2022-12-05T02:56:32;3.22;95.61
47757;SHT35;22147;52.388;13.390;2022-12-05T02:59:01;3.38;95.73
47757;SHT35;22147;52.388;13.390;2022-12-05T03:01:32;3.43;95.55
47757;SHT35;22147;52.388;13.390;2022-12-05T03:04:06;3.28;95.35
47757;SHT35;22147;52.388;13.390;2022-12-05T03:09:37;3.42;95.52
47757;SHT35;22147;52.388;13.390;2022-12-05T03:12:23;3.35;95.34
47757;SHT35;22147;52.388;13.390;2022-12-05T03:15:11;3.38;95.44
47757;SHT35;22147;52.388;13.390;2022-12-05T03:18:03;3.33;95.24
47757;SHT35;22147;52.388;13.390;2022-12-05T03:21:03;3.36;95.32
47757;SHT35;22147;52.388;13.390;2022-12-05T03:23:48;3.35;95.23
47757;SHT35;22147;52.388;13.390;2022-12-05T03:27:02;3.44;95.33
47757;SHT35;22147;52.388;13.390;2022-12-05T03:30:07;3.38;95.02
47757;SHT35;22147;52.388;13.390;2022-12-05T03:33:04;3.30;95.01
47757;SHT35;22147;52.388;13.390;2022-12-05T03:36:05;3.40;95.05
47757;SHT35;22147;52.388;13.390;2022-12-05T03:38:59;3.35;94.95
47757;SHT35;22147;52.388;13.390;2022-12-05T03:45:03;3.29;95.13
47757;SHT35;22147;52.388;13.390;2022-12-05T03:50:29;3.26;95.26
47757;SHT35;22147;52.388;13.390;2022-12-05T03:53:17;3.28;95.40
47757;SHT35;22147;52.388;13.390;2022-12-05T03:56:20;3.32;95.32
47757;SHT35;22147;52.388;13.390;2022-12-05T03:59:13;3.35;95.27
47757;SHT35;22147;52.388;13.390;2022-12-05T04:01:49;3.28;95.26
47757;SHT35;22147;52.388;13.390;2022-12-05T04:04:38;3.49;95.09
47757;SHT35;22147;52.388;13.390;2022-12-05T04:07:15;3.42;94.86
47757;SHT35;22147;52.388;13.390;2022-12-05T04:10:05;3.50;94.55
47757;SHT35;22147;52.388;13.390;2022-12-05T04:12:44;3.36;94.47
47757;SHT35;22147;52.388;13.390;2022-12-05T04:15:27;3.40;94.59
47757;SHT35;22147;52.388;13.390;2022-12-05T04:18:25;3.57;94.43
47757;SHT35;22147;52.388;13.390;2022-12-05T04:20:58;3.50;94.14
47757;SHT35;22147;52.388;13.390;2022-12-05T04:23:48;3.52;94.43
47757;SHT35;22147;52.388;13.390;2022-12-05T04:26:47;3.63;94.31
47757;SHT35;22147;52.388;13.390;2022-12-05T04:29:36;3.52;94.22
47757;SHT35;22147;52.388;13.390;2022-12-05T04:32:12;3.44;94.30
47757;SHT35;22147;52.388;13.390;2022-12-05T04:34:57;3.62;94.65
47757;SHT35;22147;52.388;13.390;2022-12-05T04:37:36;3.47;94.08
47757;SHT35;22147;52.388;13.390;2022-12-05T04:40:50;3.62;94.05
47757;SHT35;22147;52.388;13.390;2022-12-05T04:43:25;3.66;94.01
47757;SHT35;22147;52.388;13.390;2022-12-05T04:46:03;3.62;93.62
47757;SHT35;22147;52.388;13.390;2022-12-05T04:48:40;3.60;93.56
47757;SHT35;22147;52.388;13.390;2022-12-05T04:51:21;3.49;93.54
47757;SHT35;22147;52.388;13.390;2022-12-05T04:54:05;3.59;94.00
47757;SHT35;22147;52.388;13.390;2022-12-05T04:56:43;3.57;93.81
47757;SHT35;22147;52.388;13.390;2022-12-05T04:59:13;3.63;93.69
47757;SHT35;22147;52.388;13.390;2022-12-05T05:02:06;3.57;93.79
47757;SHT35;22147;52.388;13.390;2022-12-05T05:05:01;3.46;93.91
47757;SHT35;22147;52.388;13.390;2022-12-05T05:07:51;3.59;94.22
47757;SHT35;22147;52.388;13.390;2022-12-05T05:10:45;3.71;93.62
47757;SHT35;22147;52.388;13.390;2022-12-05T05:13:18;3.71;93.39
47757;SHT35;22147;52.388;13.390;2022-12-05T05:15:48;3.55;93.29
47757;SHT35;22147;52.388;13.390;2022-12-05T05:18:18;3.52;93.50
47757;SHT35;22147;52.388;13.390;2022-12-05T05:20:48;3.57;93.97
47757;SHT35;22147;52.388;13.390;2022-12-05T05:23:17;3.60;93.83
47757;SHT35;22147;52.388;13.390;2022-12-05T05:25:54;3.63;93.39
47757;SHT35;22147;52.388;13.390;2022-12-05T05:28:25;3.62;93.60
47757;SHT35;22147;52.388;13.390;2022-12-05T05:31:02;3.55;93.47
47757;SHT35;22147;52.388;13.390;2022-12-05T05:33:35;3.52;93.76
47757;SHT35;22147;52.388;13.390;2022-12-05T05:36:12;3.49;93.96
47757;SHT35;22147;52.388;13.390;2022-12-05T05:38:50;3.57;94.07
47757;SHT35;22147;52.388;13.390;2022-12-05T05:41:30;3.53;93.99
47757;SHT35;22147;52.388;13.390;2022-12-05T05:44:03;3.50;94.04
47757;SHT35;22147;52.388;13.390;2022-12-05T05:46:35;3.59;93.96
47757;SHT35;22147;52.388;13.390;2022-12-05T05:49:05;3.53;94.01
47757;SHT35;22147;52.388;13.390;2022-12-05T05:51:35;3.60;94.27
47757;SHT35;22147;52.388;13.390;2022-12-05T05:54:05;3.57;93.87
47757;SHT35;22147;52.388;13.390;2022-12-05T05:56:35;3.66;93.79
47757;SHT35;22147;52.388;13.390;2022-12-05T05:59:06;3.59;93.79
47757;SHT35;22147;52.388;13.390;2022-12-05T06:01:36;3.62;93.79
47757;SHT35;22147;52.388;13.390;2022-12-05T06:04:06;3.55;93.62
47757;SHT35;22147;52.388;13.390;2022-12-05T06:06:36;3.52;93.81
47757;SHT35;22147;52.388;13.390;2022-12-05T06:09:07;3.55;94.01
47757;SHT35;22147;52.388;13.390;2022-12-05T06:11:37;3.39;93.95
47757;SHT35;22147;52.388;13.390;2022-12-05T06:14:08;3.63;94.03
47757;SHT35;22147;52.388;13.390;2022-12-05T06:16:38;3.60;93.77
47757;SHT35;22147;52.388;13.390;2022-12-05T06:19:08;3.56;93.76
47757;SHT35;22147;52.388;13.390;2022-12-05T06:21:38;3.70;93.89
47757;SHT35;22147;52.388;13.390;2022-12-05T06:24:08;3.69;93.59
47757;SHT35;22147;52.388;13.390;2022-12-05T06:26:38;3.46;93.49
47757;SHT35;22147;52.388;13.390;2022-12-05T06:29:09;3.40;93.89
47757;SHT35;22147;52.388;13.390;2022-12-05T06:31:41;3.49;94.18
47757;SHT35;22147;52.388;13.390;2022-12-05T06:34:10;3.49;94.20
47757;SHT35;22147;52.388;13.390;2022-12-05T06:36:39;3.57;94.29
47757;SHT35;22147;52.388;13.390;2022-12-05T06:39:09;3.49;94.13
47757;SHT35;22147;52.388;13.390;2022-12-05T06:41:39;3.62;94.13
47757;SHT35;22147;52.388;13.390;2022-12-05T06:44:09;3.46;93.91
47757;SHT35;22147;52.388;13.390;2022-12-05T06:46:38;3.49;94.29
47757;SHT35;22147;52.388;13.390;2022-12-05T06:49:12;3.59;94.20
47757;SHT35;22147;52.388;13.390;2022-12-05T06:51:41;3.56;94.40
47757;SHT35;22147;52.388;13.390;2022-12-05T06:54:13;3.43;94.28
47757;SHT35;22147;52.388;13.390;2022-12-05T06:56:44;3.36;94.40
47757;SHT35;22147;52.388;13.390;2022-12-05T06:59:14;3.35;94.55
47757;SHT35;22147;52.388;13.390;2022-12-05T07:01:44;3.35;94.87
47757;SHT35;22147;52.388;13.390;2022-12-05T07:04:22;3.50;94.94
47757;SHT35;22147;52.388;13.390;2022-12-05T07:06:54;3.43;94.78
47757;SHT35;22147;52.388;13.390;2022-12-05T07:09:25;3.69;94.89
47757;SHT35;22147;52.388;13.390;2022-12-05T07:12:18;3.66;94.31
47757;SHT35;22147;52.388;13.390;2022-12-05T07:14:47;3.50;93.98
47757;SHT35;22147;52.388;13.390;2022-12-05T07:17:20;3.49;94.23
47757;SHT35;22147;52.388;13.390;2022-12-05T07:19:52;3.55;94.25
47757;SHT35;22147;52.388;13.390;2022-12-05T07:22:23;3.47;94.27
47757;SHT35;22147;52.388;13.390;2022-12-05T07:24:52;3.42;94.40
47757;SHT35;22147;52.388;13.390;2022-12-05T07:27:22;3.39;94.55
47757;SHT35;22147;52.388;13.390;2022-12-05T07:29:56;3.43;94.76
47757;SHT35;22147;52.388;13.390;2022-12-05T07:32:32;3.46;94.90
47757;SHT35;22147;52.388;13.390;2022-12-05T07:35:01;3.50;94.92
47757;SHT35;22147;52.388;13.390;2022-12-05T07:37:29;3.47;94.84
47757;SHT35;22147;52.388;13.390;2022-12-05T07:39:58;3.46;94.82
47757;SHT35;22147;52.388;13.390;2022-12-05T07:42:26;3.57;94.87
47757;SHT35;22147;52.388;13.390;2022-12-05T07:44:55;3.60;94.84
47757;SHT35;22147;52.388;13.390;2022-12-05T07:47:23;3.70;94.27
47757;SHT35;22147;52.388;13.390;2022-12-05T07:49:52;3.69;93.96
47757;SHT35;22147;52.388;13.390;2022-12-05T07:52:20;3.67;93.80
47757;SHT35;22147;52.388;13.390;2022-12-05T07:54:48;3.67;93.62
47757;SHT35;22147;52.388;13.390;2022-12-05T07:57:17;3.50;93.83
47757;SHT35;22147;52.388;13.390;2022-12-05T07:59:45;3.40;94.24
47757;SHT35;22147;52.388;13.390;2022-12-05T08:02:14;3.42;94.68
47757;SHT35;22147;52.388;13.390;2022-12-05T08:04:42;3.53;95.04
47757;SHT35;22147;52.388;13.390;2022-12-05T08:07:11;3.57;94.76
47757;SHT35;22147;52.388;13.390;2022-12-05T08:09:39;3.59;94.81
47757;SHT35;22147;52.388;13.390;2022-12-05T08:12:09;3.73;94.51
47757;SHT35;22147;52.388;13.390;2022-12-05T08:14:39;3.60;94.19
47757;SHT35;22147;52.388;13.390;2022-12-05T08:17:07;3.60;94.21
47757;SHT35;22147;52.388;13.390;2022-12-05T08:19:36;3.55;94.38
47757;SHT35;22147;52.388;13.390;2022-12-05T08:22:04;3.67;94.24
47757;SHT35;22147;52.388;13.390;2022-12-05T08:24:33;3.63;94.28
47757;SHT35;22147;52.388;13.390;2022-12-05T08:27:04;3.59;94.26
47757;SHT35;22147;52.388;13.390;2022-12-05T08:29:33;3.62;94.39
47757;SHT35;22147;52.388;13.390;2022-12-05T08:32:03;3.74;94.12
47757;SHT35;22147;52.388;13.390;2022-12-05T08:34:34;3.69;94.10
47757;SHT35;22147;52.388;13.390;2022-12-05T08:37:03;3.71;94.03
47757;SHT35;22147;52.388;13.390;2022-12-05T08:39:33;3.70;94.15
47757;SHT35;22147;52.388;13.390;2022-12-05T08:42:08;3.64;94.05
47757;SHT35;22147;52.388;13.390;2022-12-05T08:44:40;3.73;94.21
47757;SHT35;22147;52.388;13.390;2022-12-05T08:47:10;3.56;94.03
47757;SHT35;22147;52.388;13.390;2022-12-05T08:49:40;3.63;94.19
47757;SHT35;22147;52.388;13.390;2022-12-05T08:52:10;3.63;94.08
47757;SHT35;22147;52.388;13.390;2022-12-05T08:54:39;3.69;94.10
47757;SHT35;22147;52.388;13.390;2022-12-05T08:57:09;3.50;93.99
47757;SHT35;22147;52.388;13.390;2022-12-05T08:59:39;3.53;94.05
47757;SHT35;22147;52.388;13.390;2022-12-05T09:02:10;3.57;94.33
47757;SHT35;22147;52.388;13.390;2022-12-05T09:04:40;3.47;94.19
47757;SHT35;22147;52.388;13.390;2022-12-05T09:07:09;3.60;94.23
47757;SHT35;22147;52.388;13.390;2022-12-05T09:09:39;3.50;94.11
47757;SHT35;22147;52.388;13.390;2022-12-05T09:12:11;3.57;94.50
47757;SHT35;22147;52.388;13.390;2022-12-05T09:14:42;3.73;94.36
47757;SHT35;22147;52.388;13.390;2022-12-05T09:17:12;3.63;93.85
47757;SHT35;22147;52.388;13.390;2022-12-05T09:19:41;3.59;93.93
47757;SHT35;22147;52.388;13.390;2022-12-05T09:22:11;3.76;94.08
47757;SHT35;22147;52.388;13.390;2022-12-05T09:24:41;3.60;93.70
47757;SHT35;22147;52.388;13.390;2022-12-05T09:27:11;3.80;93.61
47757;SHT35;22147;52.388;13.390;2022-12-05T09:29:41;3.69;93.44
47757;SHT35;22147;52.388;13.390;2022-12-05T09:32:12;3.83;93.28
47757;SHT35;22147;52.388;13.390;2022-12-05T09:34:41;3.69;92.97
47757;SHT35;22147;52.388;13.390;2022-12-05T09:37:11;3.71;93.29
47757;SHT35;22147;52.388;13.390;2022-12-05T09:40:01;3.84;93.22
47757;SHT35;22147;52.388;13.390;2022-12-05T09:43:05;3.80;93.04
47757;SHT35;22147;52.388;13.390;2022-12-05T09:45:56;3.78;93.30
47757;SHT35;22147;52.388;13.390;2022-12-05T09:48:30;3.94;93.02
47757;SHT35;22147;52.388;13.390;2022-12-05T09:51:02;3.71;92.69
47757;SHT35;22147;52.388;13.390;2022-12-05T09:53:43;3.73;93.28
47757;SHT35;22147;52.388;13.390;2022-12-05T09:56:43;3.59;93.40
47757;SHT35;22147;52.388;13.390;2022-12-05T09:59:16;3.63;93.62
47757;SHT35;22147;52.388;13.390;2022-12-05T10:02:49;3.67;93.46
47757;SHT35;22147;52.388;13.390;2022-12-05T10:05:52;3.69;93.73
47757;SHT35;22147;52.388;13.390;2022-12-05T10:08:57;3.66;93.36
47757;SHT35;22147;52.388;13.390;2022-12-05T10:11:48;3.71;93.79
47757;SHT35;22147;52.388;13.390;2022-12-05T10:17:26;3.64;93.69
47757;SHT35;22147;52.388;13.390;2022-12-05T10:20:20;3.70;93.85
47757;SHT35;22147;52.388;13.390;2022-12-05T10:23:07;3.53;93.93
47757;SHT35;22147;52.388;13.390;2022-12-05T10:26:09;3.69;94.34
47757;SHT35;22147;52.388;13.390;2022-12-05T10:32:10;3.63;94.16
47757;SHT35;22147;52.388;13.390;2022-12-05T10:34:44;3.70;94.34
47757;SHT35;22147;52.388;13.390;2022-12-05T10:37:20;3.66;94.10
47757;SHT35;22147;52.388;13.390;2022-12-05T10:39:51;3.60;94.25
47757;SHT35;22147;52.388;13.390;2022-12-05T10:42:34;3.73;94.62
47757;SHT35;22147;52.388;13.390;2022-12-05T10:45:19;3.74;94.35
47757;SHT35;22147;52.388;13.390;2022-12-05T10:47:56;3.66;94.26
47757;SHT35;22147;52.388;13.390;2022-12-05T10:50:36;3.66;94.38
47757;SHT35;22147;52.388;13.390;2022-12-05T10:53:17;3.73;94.51
47757;SHT35;22147;52.388;13.390;2022-12-05T10:55:48;3.69;94.52
47757;SHT35;22147;52.388;13.390;2022-12-05T10:58:56;3.64;94.51
47757;SHT35;22147;52.388;13.390;2022-12-05T11:01:28;3.83;94.54
47757;SHT35;22147;52.388;13.390;2022-12-05T11:07:00;3.74;94.43
47757;SHT35;22147;52.388;13.390;2022-12-05T11:09:36;3.86;94.67
47757;SHT35;22147;52.388;13.390;2022-12-05T11:12:27;3.91;94.49
47757;SHT35;22147;52.388;13.390;2022-12-05T11:15:22;4.08;94.32
47757;SHT35;22147;52.388;13.390;2022-12-05T11:18:16;3.95;94.02
47757;SHT35;22147;52.388;13.390;2022-12-05T11:20:46;3.98;94.01
47757;SHT35;22147;52.388;13.390;2022-12-05T11:23:29;3.91;93.97
47757;SHT35;22147;52.388;13.390;2022-12-05T11:26:00;3.84;94.21
47757;SHT35;22147;52.388;13.390;2022-12-05T11:28:36;3.80;94.31
47757;SHT35;22147;52.388;13.390;2022-12-05T11:31:26;3.84;94.55
47757;SHT35;22147;52.388;13.390;2022-12-05T11:34:24;3.73;94.54
47757;SHT35;22147;52.388;13.390;2022-12-05T11:37:12;3.77;94.66
47757;SHT35;22147;52.388;13.390;2022-12-05T11:39:43;3.76;94.72
47757;SHT35;22147;52.388;13.390;2022-12-05T11:55:40;4.01;94.91
47757;SHT35;22147;52.388;13.390;2022-12-05T11:58:41;3.90;94.48
47757;SHT35;22147;52.388;13.390;2022-12-05T12:11:29;4.01;94.74
47757;SHT35;22147;52.388;13.390;2022-12-05T12:17:22;3.73;94.59
47757;SHT35;22147;52.388;13.390;2022-12-05T12:20:16;3.81;94.81
47757;SHT35;22147;52.388;13.390;2022-12-05T12:30:14;3.73;95.14
47757;SHT35;22147;52.388;13.390;2022-12-05T12:38:50;3.78;95.06
47757;SHT35;22147;52.388;13.390;2022-12-05T12:42:03;3.83;95.17
47757;SHT35;22147;52.388;13.390;2022-12-05T12:48:03;3.78;95.23
47757;SHT35;22147;52.388;13.390;2022-12-05T12:50:44;3.80;95.30
47757;SHT35;22147;52.388;13.390;2022-12-05T13:02:35;3.93;95.08
47757;SHT35;22147;52.388;13.390;2022-12-05T13:05:44;3.91;95.10
47757;SHT35;22147;52.388;13.390;2022-12-05T13:11:19;3.98;95.21
47757;SHT35;22147;52.388;13.390;2022-12-05T13:14:00;3.99;95.22
47757;SHT35;22147;52.388;13.390;2022-12-05T13:16:43;4.07;95.21
47757;SHT35;22147;52.388;13.390;2022-12-05T13:19:41;4.07;95.17
47757;SHT35;22147;52.388;13.390;2022-12-05T13:22:18;4.02;95.15
47757;SHT35;22147;52.388;13.390;2022-12-05T13:24:53;4.01;95.20
47757;SHT35;22147;52.388;13.390;2022-12-05T13:27:27;4.09;95.27
47757;SHT35;22147;52.388;13.390;2022-12-05T13:30:01;4.04;95.23
47757;SHT35;22147;52.388;13.390;2022-12-05T13:32:39;4.09;95.30
47757;SHT35;22147;52.388;13.390;2022-12-05T13:35:35;4.05;95.22
47757;SHT35;22147;52.388;13.390;2022-12-05T13:38:39;4.04;95.23
47757;SHT35;22147;52.388;13.390;2022-12-05T13:41:51;4.02;95.10
47757;SHT35;22147;52.388;13.390;2022-12-05T13:45:06;3.98;95.21
47757;SHT35;22147;52.388;13.390;2022-12-05T13:53:40;4.09;95.25
47757;SHT35;22147;52.388;13.390;2022-12-05T13:58:58;4.01;95.31
47757;SHT35;22147;52.388;13.390;2022-12-05T14:04:00;4.07;95.43
47757;SHT35;22147;52.388;13.390;2022-12-05T14:17:31;4.07;95.55
47757;SHT35;22147;52.388;13.390;2022-12-05T14:32:35;4.02;95.67
47757;SHT35;22147;52.388;13.390;2022-12-05T14:35:45;4.09;95.76
47757;SHT35;22147;52.388;13.390;2022-12-05T14:38:35;4.05;95.72
47757;SHT35;22147;52.388;13.390;2022-12-05T14:41:25;4.04;95.76
47757;SHT35;22147;52.388;13.390;2022-12-05T14:43:59;4.04;95.79
47757;SHT35;22147;52.388;13.390;2022-12-05T14:46:44;4.05;95.79
47757;SHT35;22147;52.388;13.390;2022-12-05T14:56:20;4.09;95.85
47757;SHT35;22147;52.388;13.390;2022-12-05T15:01:54;4.12;95.89
47757;SHT35;22147;52.388;13.390;2022-12-05T15:04:55;4.11;95.95
47757;SHT35;22147;52.388;13.390;2022-12-05T15:07:37;4.09;95.92
47757;SHT35;22147;52.388;13.390;2022-12-05T15:10:34;4.09;95.97
47757;SHT35;22147;52.388;13.390;2022-12-05T15:13:20;4.16;95.98
47757;SHT35;22147;52.388;13.390;2022-12-05T15:16:16;4.11;95.92
47757;SHT35;22147;52.388;13.390;2022-12-05T15:18:56;4.09;95.92
47757;SHT35;22147;52.388;13.390;2022-12-05T15:21:49;4.11;95.98
47757;SHT35;22147;52.388;13.390;2022-12-05T15:24:22;4.15;95.99
47757;SHT35;22147;52.388;13.390;2022-12-05T15:26:56;4.15;96.02
47757;SHT35;22147;52.388;13.390;2022-12-05T15:29:29;4.12;95.97
47757;SHT35;22147;52.388;13.390;2022-12-05T15:35:05;4.11;96.02
47757;SHT35;22147;52.388;13.390;2022-12-05T15:37:52;4.12;96.06
47757;SHT35;22147;52.388;13.390;2022-12-05T15:40:24;4.15;96.06
47757;SHT35;22147;52.388;13.390;2022-12-05T15:42:56;4.15;96.06
47757;SHT35;22147;52.388;13.390;2022-12-05T15:45:29;4.15;96.11
47757;SHT35;22147;52.388;13.390;2022-12-05T15:50:48;4.11;96.11
47757;SHT35;22147;52.388;13.390;2022-12-05T15:53:46;4.14;96.16
47757;SHT35;22147;52.388;13.390;2022-12-05T15:56:34;4.12;96.17
47757;SHT35;22147;52.388;13.390;2022-12-05T15:59:21;4.18;96.23
47757;SHT35;22147;52.388;13.390;2022-12-05T16:02:10;4.25;96.28
47757;SHT35;22147;52.388;13.390;2022-12-05T16:05:02;4.14;96.21
47757;SHT35;22147;52.388;13.390;2022-12-05T16:07:34;4.16;96.21
47757;SHT35;22147;52.388;13.390;2022-12-05T16:10:11;4.16;96.26
47757;SHT35;22147;52.388;13.390;2022-12-05T16:12:42;4.15;96.27
47757;SHT35;22147;52.388;13.390;2022-12-05T16:15:25;4.16;96.28
47757;SHT35;22147;52.388;13.390;2022-12-05T16:18:02;4.15;96.31
47757;SHT35;22147;52.388;13.390;2022-12-05T16:20:36;4.15;96.30
47757;SHT35;22147;52.388;13.390;2022-12-05T16:23:32;4.16;96.34
47757;SHT35;22147;52.388;13.390;2022-12-05T16:26:17;4.18;96.30
47757;SHT35;22147;52.388;13.390;2022-12-05T16:29:00;4.16;96.33
47757;SHT35;22147;52.388;13.390;2022-12-05T16:31:33;4.22;96.38
47757;SHT35;22147;52.388;13.390;2022-12-05T16:34:13;4.25;96.38
47757;SHT35;22147;52.388;13.390;2022-12-05T16:36:52;4.21;96.38
47757;SHT35;22147;52.388;13.390;2022-12-05T16:39:24;4.22;96.39
47757;SHT35;22147;52.388;13.390;2022-12-05T16:41:57;4.25;96.39
47757;SHT35;22147;52.388;13.390;2022-12-05T16:46:57;4.25;96.41
47757;SHT35;22147;52.388;13.390;2022-12-05T16:54:37;4.25;96.43
47757;SHT35;22147;52.388;13.390;2022-12-05T16:57:14;4.34;96.46
47757;SHT35;22147;52.388;13.390;2022-12-05T16:59:43;4.32;96.47
47757;SHT35;22147;52.388;13.390;2022-12-05T17:02:17;4.35;96.42
47757;SHT35;22147;52.388;13.390;2022-12-05T17:04:45;4.34;96.37
47757;SHT35;22147;52.388;13.390;2022-12-05T17:07:14;4.29;96.37
47757;SHT35;22147;52.388;13.390;2022-12-05T17:09:42;4.32;96.39
47757;SHT35;22147;52.388;13.390;2022-12-05T17:12:22;4.32;96.39
47757;SHT35;22147;52.388;13.390;2022-12-05T17:14:52;4.26;96.37
47757;SHT35;22147;52.388;13.390;2022-12-05T17:17:21;4.26;96.41
47757;SHT35;22147;52.388;13.390;2022-12-05T17:19:51;4.28;96.41
47757;SHT35;22147;52.388;13.390;2022-12-05T17:22:22;4.28;96.42
47757;SHT35;22147;52.388;13.390;2022-12-05T17:24:52;4.28;96.45
47757;SHT35;22147;52.388;13.390;2022-12-05T17:27:23;4.24;96.48
47757;SHT35;22147;52.388;13.390;2022-12-05T17:29:53;4.28;96.57
47757;SHT35;22147;52.388;13.390;2022-12-05T17:32:23;4.28;96.51
47757;SHT35;22147;52.388;13.390;2022-12-05T17:39:26;4.35;96.56
47757;SHT35;22147;52.388;13.390;2022-12-05T17:41:57;4.32;96.50
47757;SHT35;22147;52.388;13.390;2022-12-05T17:44:28;4.29;96.50
47757;SHT35;22147;52.388;13.390;2022-12-05T17:46:58;4.28;96.51
47757;SHT35;22147;52.388;13.390;2022-12-05T17:49:36;4.24;96.56
47757;SHT35;22147;52.388;13.390;2022-12-05T17:52:09;4.28;96.58
47757;SHT35;22147;52.388;13.390;2022-12-05T17:54:55;4.28;96.59
47757;SHT35;22147;52.388;13.390;2022-12-05T17:57:26;4.26;96.56
47757;SHT35;22147;52.388;13.390;2022-12-05T17:59:56;4.36;96.73
47757;SHT35;22147;52.388;13.390;2022-12-05T18:02:26;4.31;96.62
47757;SHT35;22147;52.388;13.390;2022-12-05T18:04:56;4.32;96.61
47757;SHT35;22147;52.388;13.390;2022-12-05T18:07:26;4.29;96.60
47757;SHT35;22147;52.388;13.390;2022-12-05T18:09:57;4.28;96.59
47757;SHT35;22147;52.388;13.390;2022-12-05T18:12:27;4.26;96.62
47757;SHT35;22147;52.388;13.390;2022-12-05T18:14:57;4.25;96.63
47757;SHT35;22147;52.388;13.390;2022-12-05T18:17:28;4.31;96.64
47757;SHT35;22147;52.388;13.390;2022-12-05T18:19:58;4.31;96.66
47757;SHT35;22147;52.388;13.390;2022-12-05T18:22:28;4.36;96.65
47757;SHT35;22147;52.388;13.390;2022-12-05T18:24:58;4.34;96.63
47757;SHT35;22147;52.388;13.390;2022-12-05T18:27:31;4.25;96.61
47757;SHT35;22147;52.388;13.390;2022-12-05T18:30:04;4.28;96.62
47757;SHT35;22147;52.388;13.390;2022-12-05T18:32:33;4.28;96.66
47757;SHT35;22147;52.388;13.390;2022-12-05T18:35:02;4.21;96.63
47757;SHT35;22147;52.388;13.390;2022-12-05T18:37:38;4.31;96.71
47757;SHT35;22147;52.388;13.390;2022-12-05T18:40:10;4.25;96.66
47757;SHT35;22147;52.388;13.390;2022-12-05T18:42:40;4.19;96.66
47757;SHT35;22147;52.388;13.390;2022-12-05T18:45:09;4.18;96.65
47757;SHT35;22147;52.388;13.390;2022-12-05T18:47:40;4.22;96.71
47757;SHT35;22147;52.388;13.390;2022-12-05T18:50:10;4.18;96.69
47757;SHT35;22147;52.388;13.390;2022-12-05T18:52:40;4.12;96.65
47757;SHT35;22147;52.388;13.390;2022-12-05T18:55:10;4.02;96.54